sensor_id;sensor_type;location;lat;lon;timestamp;P1;durP1;ratioP1;P2;durP2;ratioP2
11616;SDS011;5864;52.998;9.068;2023-04-20T00:00:52;3.40;;;2.70;;
11616;SDS011;5864;52.998;9.068;2023-04-20T00:03:40;3.43;;;2.53;;
11616;SDS011;5864;52.998;9.068;2023-04-20T00:06:26;5.37;;;2.70;;
11616;SDS011;5864;52.998;9.068;2023-04-20T00:09:13;3.53;;;2.63;;
11616;SDS011;5864;52.998;9.068;2023-04-20T00:11:59;4.73;;;2.50;;
11616;SDS011;5864;52.998;9.068;2023-04-20T00:14:45;4.47;;;2.67;;
11616;SDS011;5864;52.998;9.068;2023-04-20T00:17:31;7.23;;;2.73;;
11616;SDS011;5864;52.998;9.068;2023-04-20T00:20:16;6.37;;;2.60;;
11616;SDS011;5864;52.998;9.068;2023-04-20T00:23:02;3.43;;;2.50;;
11616;SDS011;5864;52.998;9.068;2023-04-20T00:25:49;4.33;;;2.87;;
11616;SDS011;5864;52.998;9.068;2023-04-20T00:28:35;5.60;;;3.00;;
11616;SDS011;5864;52.998;9.068;2023-04-20T00:31:20;7.63;;;3.20;;
11616;SDS011;5864;52.998;9.068;2023-04-20T00:34:06;2.93;;;2.43;;
11616;SDS011;5864;52.998;9.068;2023-04-20T00:36:51;6.00;;;2.80;;
11616;SDS011;5864;52.998;9.068;2023-04-20T00:39:38;7.43;;;2.87;;
11616;SDS011;5864;52.998;9.068;2023-04-20T00:42:25;6.27;;;3.10;;
11616;SDS011;5864;52.998;9.068;2023-04-20T00:45:11;7.13;;;3.00;;
11616;SDS011;5864;52.998;9.068;2023-04-20T00:47:56;6.43;;;2.90;;
11616;SDS011;5864;52.998;9.068;2023-04-20T00:50:42;3.70;;;2.70;;
11616;SDS011;5864;52.998;9.068;2023-04-20T00:53:28;6.63;;;3.00;;
11616;SDS011;5864;52.998;9.068;2023-04-20T00:56:14;5.23;;;2.40;;
11616;SDS011;5864;52.998;9.068;2023-04-20T00:59:01;5.07;;;2.87;;
11616;SDS011;5864;52.998;9.068;2023-04-20T01:01:48;5.10;;;2.70;;
11616;SDS011;5864;52.998;9.068;2023-04-20T01:04:34;3.20;;;2.50;;
11616;SDS011;5864;52.998;9.068;2023-04-20T01:07:19;4.83;;;2.50;;
11616;SDS011;5864;52.998;9.068;2023-04-20T01:10:06;4.47;;;2.67;;
11616;SDS011;5864;52.998;9.068;2023-04-20T01:12:52;4.83;;;2.63;;
11616;SDS011;5864;52.998;9.068;2023-04-20T01:15:39;3.13;;;2.30;;
11616;SDS011;5864;52.998;9.068;2023-04-20T01:18:25;4.50;;;2.70;;
11616;SDS011;5864;52.998;9.068;2023-04-20T01:21:11;5.30;;;2.47;;
11616;SDS011;5864;52.998;9.068;2023-04-20T01:23:59;4.27;;;2.60;;
11616;SDS011;5864;52.998;9.068;2023-04-20T01:26:45;7.03;;;2.47;;
11616;SDS011;5864;52.998;9.068;2023-04-20T01:29:31;4.97;;;2.30;;
11616;SDS011;5864;52.998;9.068;2023-04-20T01:32:17;5.03;;;2.63;;
11616;SDS011;5864;52.998;9.068;2023-04-20T01:35:03;5.50;;;2.50;;
11616;SDS011;5864;52.998;9.068;2023-04-20T01:37:49;3.43;;;2.57;;
11616;SDS011;5864;52.998;9.068;2023-04-20T01:40:37;4.47;;;2.30;;
11616;SDS011;5864;52.998;9.068;2023-04-20T01:43:23;5.57;;;2.90;;
11616;SDS011;5864;52.998;9.068;2023-04-20T01:46:10;3.20;;;2.27;;
11616;SDS011;5864;52.998;9.068;2023-04-20T01:48:56;3.73;;;2.47;;
11616;SDS011;5864;52.998;9.068;2023-04-20T01:51:42;2.93;;;2.23;;
11616;SDS011;5864;52.998;9.068;2023-04-20T01:54:27;4.47;;;2.40;;
11616;SDS011;5864;52.998;9.068;2023-04-20T01:57:14;5.07;;;2.30;;
11616;SDS011;5864;52.998;9.068;2023-04-20T02:00:00;3.60;;;2.80;;
11616;SDS011;5864;52.998;9.068;2023-04-20T02:02:45;3.00;;;2.00;;
11616;SDS011;5864;52.998;9.068;2023-04-20T02:05:31;4.27;;;2.73;;
11616;SDS011;5864;52.998;9.068;2023-04-20T02:08:16;6.87;;;2.60;;
11616;SDS011;5864;52.998;9.068;2023-04-20T02:11:02;5.60;;;2.37;;
11616;SDS011;5864;52.998;9.068;2023-04-20T02:13:49;5.43;;;2.30;;
11616;SDS011;5864;52.998;9.068;2023-04-20T02:16:35;6.30;;;2.40;;
11616;SDS011;5864;52.998;9.068;2023-04-20T02:19:21;3.67;;;2.07;;
11616;SDS011;5864;52.998;9.068;2023-04-20T02:22:07;2.37;;;2.00;;
11616;SDS011;5864;52.998;9.068;2023-04-20T02:24:52;4.33;;;2.70;;
11616;SDS011;5864;52.998;9.068;2023-04-20T02:27:38;4.27;;;2.90;;
11616;SDS011;5864;52.998;9.068;2023-04-20T02:30:25;4.27;;;2.47;;
11616;SDS011;5864;52.998;9.068;2023-04-20T02:33:11;4.33;;;2.70;;
11616;SDS011;5864;52.998;9.068;2023-04-20T02:35:56;4.60;;;2.70;;
11616;SDS011;5864;52.998;9.068;2023-04-20T02:38:43;5.23;;;2.60;;
11616;SDS011;5864;52.998;9.068;2023-04-20T02:41:29;3.90;;;2.50;;
11616;SDS011;5864;52.998;9.068;2023-04-20T02:44:15;5.50;;;3.07;;
11616;SDS011;5864;52.998;9.068;2023-04-20T02:47:02;4.47;;;3.13;;
11616;SDS011;5864;52.998;9.068;2023-04-20T02:49:48;8.73;;;2.70;;
11616;SDS011;5864;52.998;9.068;2023-04-20T02:52:33;4.57;;;3.00;;
11616;SDS011;5864;52.998;9.068;2023-04-20T02:55:19;9.37;;;2.97;;
11616;SDS011;5864;52.998;9.068;2023-04-20T02:58:05;4.17;;;2.53;;
11616;SDS011;5864;52.998;9.068;2023-04-20T03:00:51;4.37;;;2.70;;
11616;SDS011;5864;52.998;9.068;2023-04-20T03:03:43;6.43;;;3.10;;
11616;SDS011;5864;52.998;9.068;2023-04-20T03:06:29;5.70;;;2.77;;
11616;SDS011;5864;52.998;9.068;2023-04-20T03:09:15;6.23;;;3.30;;
11616;SDS011;5864;52.998;9.068;2023-04-20T03:12:00;4.73;;;3.03;;
11616;SDS011;5864;52.998;9.068;2023-04-20T03:14:46;8.10;;;3.17;;
11616;SDS011;5864;52.998;9.068;2023-04-20T03:17:32;4.70;;;3.27;;
11616;SDS011;5864;52.998;9.068;2023-04-20T03:20:19;7.37;;;3.30;;
11616;SDS011;5864;52.998;9.068;2023-04-20T03:23:05;5.13;;;3.27;;
11616;SDS011;5864;52.998;9.068;2023-04-20T03:25:51;5.27;;;3.60;;
11616;SDS011;5864;52.998;9.068;2023-04-20T03:28:37;6.17;;;3.50;;
11616;SDS011;5864;52.998;9.068;2023-04-20T03:31:22;6.37;;;3.60;;
11616;SDS011;5864;52.998;9.068;2023-04-20T03:34:08;8.83;;;3.27;;
11616;SDS011;5864;52.998;9.068;2023-04-20T03:36:55;4.40;;;3.17;;
11616;SDS011;5864;52.998;9.068;2023-04-20T03:39:40;6.10;;;3.47;;
11616;SDS011;5864;52.998;9.068;2023-04-20T03:42:26;6.90;;;3.60;;
11616;SDS011;5864;52.998;9.068;2023-04-20T03:45:13;8.33;;;3.83;;
11616;SDS011;5864;52.998;9.068;2023-04-20T03:47:59;10.57;;;3.77;;
11616;SDS011;5864;52.998;9.068;2023-04-20T03:50:44;6.07;;;3.60;;
11616;SDS011;5864;52.998;9.068;2023-04-20T03:53:31;8.47;;;3.90;;
11616;SDS011;5864;52.998;9.068;2023-04-20T03:56:17;9.10;;;4.40;;
11616;SDS011;5864;52.998;9.068;2023-04-20T03:59:02;8.23;;;4.90;;
11616;SDS011;5864;52.998;9.068;2023-04-20T04:01:48;10.80;;;4.50;;
11616;SDS011;5864;52.998;9.068;2023-04-20T04:04:34;8.20;;;4.23;;
11616;SDS011;5864;52.998;9.068;2023-04-20T04:07:20;8.53;;;4.20;;
11616;SDS011;5864;52.998;9.068;2023-04-20T04:10:07;6.40;;;3.70;;
11616;SDS011;5864;52.998;9.068;2023-04-20T04:12:54;10.43;;;4.40;;
11616;SDS011;5864;52.998;9.068;2023-04-20T04:15:40;9.70;;;4.27;;
11616;SDS011;5864;52.998;9.068;2023-04-20T04:18:25;14.40;;;4.37;;
11616;SDS011;5864;52.998;9.068;2023-04-20T04:21:14;14.23;;;4.33;;
11616;SDS011;5864;52.998;9.068;2023-04-20T04:24:00;8.03;;;3.90;;
11616;SDS011;5864;52.998;9.068;2023-04-20T04:26:47;6.60;;;3.70;;
11616;SDS011;5864;52.998;9.068;2023-04-20T04:29:32;8.10;;;4.03;;
11616;SDS011;5864;52.998;9.068;2023-04-20T04:32:18;7.70;;;3.80;;
11616;SDS011;5864;52.998;9.068;2023-04-20T04:35:04;5.90;;;3.90;;
11616;SDS011;5864;52.998;9.068;2023-04-20T04:37:50;7.10;;;3.57;;
11616;SDS011;5864;52.998;9.068;2023-04-20T04:40:36;6.87;;;3.77;;
11616;SDS011;5864;52.998;9.068;2023-04-20T04:43:23;8.77;;;4.67;;
11616;SDS011;5864;52.998;9.068;2023-04-20T04:46:09;10.80;;;3.97;;
11616;SDS011;5864;52.998;9.068;2023-04-20T04:48:55;7.67;;;4.47;;
11616;SDS011;5864;52.998;9.068;2023-04-20T04:51:44;7.07;;;3.80;;
11616;SDS011;5864;52.998;9.068;2023-04-20T04:54:30;10.13;;;4.20;;
11616;SDS011;5864;52.998;9.068;2023-04-20T04:57:17;6.30;;;3.30;;
11616;SDS011;5864;52.998;9.068;2023-04-20T05:00:05;8.27;;;3.97;;
11616;SDS011;5864;52.998;9.068;2023-04-20T05:02:55;7.60;;;3.60;;
11616;SDS011;5864;52.998;9.068;2023-04-20T05:05:41;10.00;;;3.73;;
11616;SDS011;5864;52.998;9.068;2023-04-20T05:08:26;6.83;;;3.90;;
11616;SDS011;5864;52.998;9.068;2023-04-20T05:11:13;9.80;;;3.97;;
11616;SDS011;5864;52.998;9.068;2023-04-20T05:13:58;7.67;;;3.90;;
11616;SDS011;5864;52.998;9.068;2023-04-20T05:16:46;7.70;;;3.90;;
11616;SDS011;5864;52.998;9.068;2023-04-20T05:19:32;7.03;;;3.87;;
11616;SDS011;5864;52.998;9.068;2023-04-20T05:22:18;6.20;;;3.70;;
11616;SDS011;5864;52.998;9.068;2023-04-20T05:25:04;8.50;;;3.73;;
11616;SDS011;5864;52.998;9.068;2023-04-20T05:27:51;7.77;;;4.30;;
11616;SDS011;5864;52.998;9.068;2023-04-20T05:30:36;10.10;;;3.77;;
11616;SDS011;5864;52.998;9.068;2023-04-20T05:33:23;9.87;;;4.17;;
11616;SDS011;5864;52.998;9.068;2023-04-20T05:36:10;8.77;;;4.33;;
11616;SDS011;5864;52.998;9.068;2023-04-20T05:38:56;10.17;;;4.80;;
11616;SDS011;5864;52.998;9.068;2023-04-20T05:41:41;9.80;;;4.43;;
11616;SDS011;5864;52.998;9.068;2023-04-20T05:44:27;11.40;;;4.40;;
11616;SDS011;5864;52.998;9.068;2023-04-20T05:47:13;10.40;;;4.13;;
11616;SDS011;5864;52.998;9.068;2023-04-20T05:50:00;9.13;;;4.27;;
11616;SDS011;5864;52.998;9.068;2023-04-20T05:52:46;8.43;;;4.07;;
11616;SDS011;5864;52.998;9.068;2023-04-20T05:55:32;7.37;;;3.93;;
11616;SDS011;5864;52.998;9.068;2023-04-20T05:58:18;6.60;;;4.00;;
11616;SDS011;5864;52.998;9.068;2023-04-20T06:01:03;9.60;;;4.30;;
11616;SDS011;5864;52.998;9.068;2023-04-20T06:03:50;7.00;;;3.77;;
11616;SDS011;5864;52.998;9.068;2023-04-20T06:06:36;8.40;;;4.47;;
11616;SDS011;5864;52.998;9.068;2023-04-20T06:09:23;8.07;;;4.20;;
11616;SDS011;5864;52.998;9.068;2023-04-20T06:12:08;5.27;;;3.83;;
11616;SDS011;5864;52.998;9.068;2023-04-20T06:14:54;7.87;;;4.20;;
11616;SDS011;5864;52.998;9.068;2023-04-20T06:17:39;11.20;;;4.53;;
11616;SDS011;5864;52.998;9.068;2023-04-20T06:20:25;7.20;;;3.90;;
11616;SDS011;5864;52.998;9.068;2023-04-20T06:23:12;7.30;;;4.10;;
11616;SDS011;5864;52.998;9.068;2023-04-20T06:25:58;7.67;;;4.60;;
11616;SDS011;5864;52.998;9.068;2023-04-20T06:28:43;8.50;;;4.43;;
11616;SDS011;5864;52.998;9.068;2023-04-20T06:31:30;10.17;;;3.77;;
11616;SDS011;5864;52.998;9.068;2023-04-20T06:34:17;9.87;;;4.40;;
11616;SDS011;5864;52.998;9.068;2023-04-20T06:37:04;7.47;;;4.20;;
11616;SDS011;5864;52.998;9.068;2023-04-20T06:39:53;10.83;;;4.80;;
11616;SDS011;5864;52.998;9.068;2023-04-20T06:42:38;10.93;;;4.20;;
11616;SDS011;5864;52.998;9.068;2023-04-20T06:45:25;10.50;;;4.87;;
11616;SDS011;5864;52.998;9.068;2023-04-20T06:48:11;8.47;;;4.40;;
11616;SDS011;5864;52.998;9.068;2023-04-20T06:50:57;9.23;;;5.33;;
11616;SDS011;5864;52.998;9.068;2023-04-20T06:53:42;11.73;;;4.63;;
11616;SDS011;5864;52.998;9.068;2023-04-20T06:56:29;10.77;;;4.87;;
11616;SDS011;5864;52.998;9.068;2023-04-20T06:59:15;8.97;;;5.17;;
11616;SDS011;5864;52.998;9.068;2023-04-20T07:02:01;9.33;;;5.17;;
11616;SDS011;5864;52.998;9.068;2023-04-20T07:04:46;9.93;;;4.50;;
11616;SDS011;5864;52.998;9.068;2023-04-20T07:07:33;7.63;;;4.60;;
11616;SDS011;5864;52.998;9.068;2023-04-20T07:10:18;8.87;;;4.70;;
11616;SDS011;5864;52.998;9.068;2023-04-20T07:13:06;11.23;;;5.37;;
11616;SDS011;5864;52.998;9.068;2023-04-20T07:15:52;10.37;;;5.33;;
11616;SDS011;5864;52.998;9.068;2023-04-20T07:18:38;8.27;;;4.97;;
11616;SDS011;5864;52.998;9.068;2023-04-20T07:21:23;8.10;;;4.83;;
11616;SDS011;5864;52.998;9.068;2023-04-20T07:24:10;9.27;;;4.90;;
11616;SDS011;5864;52.998;9.068;2023-04-20T07:26:55;8.40;;;4.70;;
11616;SDS011;5864;52.998;9.068;2023-04-20T07:29:42;9.60;;;5.13;;
11616;SDS011;5864;52.998;9.068;2023-04-20T07:32:28;8.80;;;4.73;;
11616;SDS011;5864;52.998;9.068;2023-04-20T07:35:14;9.03;;;5.47;;
11616;SDS011;5864;52.998;9.068;2023-04-20T07:37:59;11.23;;;5.47;;
11616;SDS011;5864;52.998;9.068;2023-04-20T07:40:45;9.77;;;5.90;;
11616;SDS011;5864;52.998;9.068;2023-04-20T07:43:31;9.00;;;5.60;;
11616;SDS011;5864;52.998;9.068;2023-04-20T07:46:21;10.90;;;6.03;;
11616;SDS011;5864;52.998;9.068;2023-04-20T07:49:06;11.77;;;5.73;;
11616;SDS011;5864;52.998;9.068;2023-04-20T07:51:52;8.43;;;5.47;;
11616;SDS011;5864;52.998;9.068;2023-04-20T07:54:38;9.63;;;5.80;;
11616;SDS011;5864;52.998;9.068;2023-04-20T07:57:24;10.17;;;6.17;;
11616;SDS011;5864;52.998;9.068;2023-04-20T08:00:10;12.77;;;5.90;;
11616;SDS011;5864;52.998;9.068;2023-04-20T08:02:59;11.47;;;5.47;;
11616;SDS011;5864;52.998;9.068;2023-04-20T08:05:45;9.53;;;5.60;;
11616;SDS011;5864;52.998;9.068;2023-04-20T08:08:30;8.70;;;5.03;;
11616;SDS011;5864;52.998;9.068;2023-04-20T08:11:17;8.33;;;5.70;;
11616;SDS011;5864;52.998;9.068;2023-04-20T08:14:02;10.33;;;5.80;;
11616;SDS011;5864;52.998;9.068;2023-04-20T08:16:49;9.97;;;5.87;;
11616;SDS011;5864;52.998;9.068;2023-04-20T08:19:36;9.60;;;6.27;;
11616;SDS011;5864;52.998;9.068;2023-04-20T08:22:21;9.90;;;6.00;;
11616;SDS011;5864;52.998;9.068;2023-04-20T08:25:10;12.43;;;6.23;;
11616;SDS011;5864;52.998;9.068;2023-04-20T08:27:55;10.73;;;6.63;;
11616;SDS011;5864;52.998;9.068;2023-04-20T08:30:41;11.67;;;6.43;;
11616;SDS011;5864;52.998;9.068;2023-04-20T08:33:28;9.27;;;5.67;;
11616;SDS011;5864;52.998;9.068;2023-04-20T08:36:15;9.97;;;6.10;;
11616;SDS011;5864;52.998;9.068;2023-04-20T08:39:04;11.80;;;6.40;;
11616;SDS011;5864;52.998;9.068;2023-04-20T08:41:51;11.17;;;6.20;;
11616;SDS011;5864;52.998;9.068;2023-04-20T08:44:39;9.90;;;6.10;;
11616;SDS011;5864;52.998;9.068;2023-04-20T08:47:24;9.37;;;6.30;;
11616;SDS011;5864;52.998;9.068;2023-04-20T08:50:12;10.30;;;6.30;;
11616;SDS011;5864;52.998;9.068;2023-04-20T08:52:59;10.43;;;6.33;;
11616;SDS011;5864;52.998;9.068;2023-04-20T08:55:47;11.67;;;7.00;;
11616;SDS011;5864;52.998;9.068;2023-04-20T08:58:33;11.40;;;6.33;;
11616;SDS011;5864;52.998;9.068;2023-04-20T09:01:25;8.23;;;5.87;;
11616;SDS011;5864;52.998;9.068;2023-04-20T09:04:15;11.83;;;6.43;;
11616;SDS011;5864;52.998;9.068;2023-04-20T09:07:01;10.13;;;6.73;;
11616;SDS011;5864;52.998;9.068;2023-04-20T09:09:54;12.73;;;6.50;;
11616;SDS011;5864;52.998;9.068;2023-04-20T09:12:41;12.83;;;7.30;;
11616;SDS011;5864;52.998;9.068;2023-04-20T09:15:27;13.50;;;6.47;;
11616;SDS011;5864;52.998;9.068;2023-04-20T09:18:13;11.73;;;6.67;;
11616;SDS011;5864;52.998;9.068;2023-04-20T09:21:06;9.80;;;6.63;;
11616;SDS011;5864;52.998;9.068;2023-04-20T09:23:55;11.60;;;6.17;;
11616;SDS011;5864;52.998;9.068;2023-04-20T09:26:42;13.37;;;7.30;;
11616;SDS011;5864;52.998;9.068;2023-04-20T09:29:28;13.03;;;7.27;;
11616;SDS011;5864;52.998;9.068;2023-04-20T09:32:19;12.73;;;6.93;;
11616;SDS011;5864;52.998;9.068;2023-04-20T09:35:06;11.30;;;6.17;;
11616;SDS011;5864;52.998;9.068;2023-04-20T09:37:52;11.17;;;6.83;;
11616;SDS011;5864;52.998;9.068;2023-04-20T09:40:38;10.20;;;6.27;;
11616;SDS011;5864;52.998;9.068;2023-04-20T09:43:25;10.37;;;6.40;;
11616;SDS011;5864;52.998;9.068;2023-04-20T09:46:13;9.70;;;6.30;;
11616;SDS011;5864;52.998;9.068;2023-04-20T09:48:59;12.63;;;6.27;;
11616;SDS011;5864;52.998;9.068;2023-04-20T09:51:45;8.57;;;6.47;;
11616;SDS011;5864;52.998;9.068;2023-04-20T09:54:30;8.50;;;5.67;;
11616;SDS011;5864;52.998;9.068;2023-04-20T09:57:16;11.77;;;5.97;;
11616;SDS011;5864;52.998;9.068;2023-04-20T10:00:05;7.83;;;5.63;;
11616;SDS011;5864;52.998;9.068;2023-04-20T10:02:53;10.40;;;5.97;;
11616;SDS011;5864;52.998;9.068;2023-04-20T10:05:39;8.17;;;5.27;;
11616;SDS011;5864;52.998;9.068;2023-04-20T10:08:25;8.70;;;5.90;;
11616;SDS011;5864;52.998;9.068;2023-04-20T10:11:11;8.83;;;5.93;;
11616;SDS011;5864;52.998;9.068;2023-04-20T10:14:15;9.83;;;6.00;;
11616;SDS011;5864;52.998;9.068;2023-04-20T10:17:04;7.27;;;5.67;;
11616;SDS011;5864;52.998;9.068;2023-04-20T10:19:50;7.30;;;6.33;;
11616;SDS011;5864;52.998;9.068;2023-04-20T10:22:36;9.53;;;5.70;;
11616;SDS011;5864;52.998;9.068;2023-04-20T10:25:23;7.93;;;5.73;;
11616;SDS011;5864;52.998;9.068;2023-04-20T10:28:10;10.03;;;5.43;;
11616;SDS011;5864;52.998;9.068;2023-04-20T10:30:56;8.87;;;6.13;;
11616;SDS011;5864;52.998;9.068;2023-04-20T10:33:50;6.83;;;5.37;;
11616;SDS011;5864;52.998;9.068;2023-04-20T10:36:36;7.87;;;5.77;;
11616;SDS011;5864;52.998;9.068;2023-04-20T10:39:22;8.77;;;5.60;;
11616;SDS011;5864;52.998;9.068;2023-04-20T10:42:08;8.20;;;5.97;;
11616;SDS011;5864;52.998;9.068;2023-04-20T10:44:54;10.53;;;6.50;;
11616;SDS011;5864;52.998;9.068;2023-04-20T10:47:40;9.87;;;6.40;;
11616;SDS011;5864;52.998;9.068;2023-04-20T10:50:28;10.00;;;6.27;;
11616;SDS011;5864;52.998;9.068;2023-04-20T10:53:17;7.70;;;5.50;;
11616;SDS011;5864;52.998;9.068;2023-04-20T10:56:04;7.20;;;5.17;;
11616;SDS011;5864;52.998;9.068;2023-04-20T10:58:50;7.57;;;5.53;;
11616;SDS011;5864;52.998;9.068;2023-04-20T11:01:36;7.33;;;5.93;;
11616;SDS011;5864;52.998;9.068;2023-04-20T11:04:28;8.23;;;5.80;;
11616;SDS011;5864;52.998;9.068;2023-04-20T11:07:16;8.47;;;5.87;;
11616;SDS011;5864;52.998;9.068;2023-04-20T11:10:03;8.13;;;5.10;;
11616;SDS011;5864;52.998;9.068;2023-04-20T11:12:50;8.03;;;5.40;;
11616;SDS011;5864;52.998;9.068;2023-04-20T11:15:36;8.40;;;5.30;;
11616;SDS011;5864;52.998;9.068;2023-04-20T11:18:21;9.60;;;6.03;;
11616;SDS011;5864;52.998;9.068;2023-04-20T11:21:08;10.53;;;6.70;;
11616;SDS011;5864;52.998;9.068;2023-04-20T11:23:54;10.60;;;6.20;;
11616;SDS011;5864;52.998;9.068;2023-04-20T11:26:40;8.40;;;6.13;;
11616;SDS011;5864;52.998;9.068;2023-04-20T11:29:27;8.87;;;5.93;;
11616;SDS011;5864;52.998;9.068;2023-04-20T11:32:16;8.47;;;5.60;;
11616;SDS011;5864;52.998;9.068;2023-04-20T11:35:04;9.53;;;5.90;;
11616;SDS011;5864;52.998;9.068;2023-04-20T11:37:51;8.77;;;5.30;;
11616;SDS011;5864;52.998;9.068;2023-04-20T11:40:39;7.53;;;5.47;;
11616;SDS011;5864;52.998;9.068;2023-04-20T11:43:25;7.27;;;5.60;;
11616;SDS011;5864;52.998;9.068;2023-04-20T11:46:14;10.63;;;5.87;;
11616;SDS011;5864;52.998;9.068;2023-04-20T11:49:01;7.33;;;5.50;;
11616;SDS011;5864;52.998;9.068;2023-04-20T11:51:46;6.90;;;5.13;;
11616;SDS011;5864;52.998;9.068;2023-04-20T11:54:33;7.20;;;5.17;;
11616;SDS011;5864;52.998;9.068;2023-04-20T11:57:20;7.20;;;4.83;;
11616;SDS011;5864;52.998;9.068;2023-04-20T12:00:09;6.50;;;5.40;;
11616;SDS011;5864;52.998;9.068;2023-04-20T12:02:56;6.53;;;4.33;;
11616;SDS011;5864;52.998;9.068;2023-04-20T12:05:43;6.90;;;4.90;;
11616;SDS011;5864;52.998;9.068;2023-04-20T12:08:28;6.33;;;4.37;;
11616;SDS011;5864;52.998;9.068;2023-04-20T12:11:14;8.03;;;5.60;;
11616;SDS011;5864;52.998;9.068;2023-04-20T12:14:02;6.40;;;4.97;;
11616;SDS011;5864;52.998;9.068;2023-04-20T12:16:48;8.00;;;5.60;;
11616;SDS011;5864;52.998;9.068;2023-04-20T12:19:34;7.77;;;5.40;;
11616;SDS011;5864;52.998;9.068;2023-04-20T12:22:20;8.20;;;5.60;;
11616;SDS011;5864;52.998;9.068;2023-04-20T12:25:05;9.33;;;6.60;;
11616;SDS011;5864;52.998;9.068;2023-04-20T12:27:51;10.27;;;6.20;;
11616;SDS011;5864;52.998;9.068;2023-04-20T12:30:39;8.07;;;5.27;;
11616;SDS011;5864;52.998;9.068;2023-04-20T12:33:24;7.53;;;5.40;;
11616;SDS011;5864;52.998;9.068;2023-04-20T12:36:10;6.87;;;4.97;;
11616;SDS011;5864;52.998;9.068;2023-04-20T12:38:56;6.47;;;5.00;;
11616;SDS011;5864;52.998;9.068;2023-04-20T12:41:41;6.73;;;5.10;;
11616;SDS011;5864;52.998;9.068;2023-04-20T12:44:28;6.07;;;4.73;;
11616;SDS011;5864;52.998;9.068;2023-04-20T12:47:15;6.30;;;4.80;;
11616;SDS011;5864;52.998;9.068;2023-04-20T12:50:00;6.67;;;4.67;;
11616;SDS011;5864;52.998;9.068;2023-04-20T12:52:47;5.43;;;4.63;;
11616;SDS011;5864;52.998;9.068;2023-04-20T12:55:34;7.13;;;4.93;;
11616;SDS011;5864;52.998;9.068;2023-04-20T12:58:19;6.13;;;5.37;;
11616;SDS011;5864;52.998;9.068;2023-04-20T13:01:06;7.27;;;5.30;;
11616;SDS011;5864;52.998;9.068;2023-04-20T13:03:54;8.43;;;4.73;;
11616;SDS011;5864;52.998;9.068;2023-04-20T13:06:40;7.43;;;4.87;;
11616;SDS011;5864;52.998;9.068;2023-04-20T13:09:25;5.33;;;4.60;;
11616;SDS011;5864;52.998;9.068;2023-04-20T13:12:14;7.47;;;4.50;;
11616;SDS011;5864;52.998;9.068;2023-04-20T13:15:00;6.53;;;5.23;;
11616;SDS011;5864;52.998;9.068;2023-04-20T13:17:45;5.30;;;4.57;;
11616;SDS011;5864;52.998;9.068;2023-04-20T13:20:33;6.37;;;5.07;;
11616;SDS011;5864;52.998;9.068;2023-04-20T13:23:19;6.73;;;5.53;;
11616;SDS011;5864;52.998;9.068;2023-04-20T13:26:05;6.40;;;5.23;;
11616;SDS011;5864;52.998;9.068;2023-04-20T13:28:52;9.33;;;5.53;;
11616;SDS011;5864;52.998;9.068;2023-04-20T13:31:40;6.70;;;5.20;;
11616;SDS011;5864;52.998;9.068;2023-04-20T13:34:26;7.77;;;5.00;;
11616;SDS011;5864;52.998;9.068;2023-04-20T13:37:13;6.83;;;4.97;;
11616;SDS011;5864;52.998;9.068;2023-04-20T13:39:58;6.90;;;4.90;;
11616;SDS011;5864;52.998;9.068;2023-04-20T13:42:44;6.97;;;5.63;;
11616;SDS011;5864;52.998;9.068;2023-04-20T13:45:29;8.90;;;5.33;;
11616;SDS011;5864;52.998;9.068;2023-04-20T13:48:16;6.63;;;5.93;;
11616;SDS011;5864;52.998;9.068;2023-04-20T13:51:01;9.83;;;6.40;;
11616;SDS011;5864;52.998;9.068;2023-04-20T13:53:48;7.30;;;6.13;;
11616;SDS011;5864;52.998;9.068;2023-04-20T13:56:34;6.40;;;5.27;;
11616;SDS011;5864;52.998;9.068;2023-04-20T13:59:19;8.27;;;5.47;;
11616;SDS011;5864;52.998;9.068;2023-04-20T14:02:06;6.67;;;5.40;;
11616;SDS011;5864;52.998;9.068;2023-04-20T14:04:52;7.17;;;5.27;;
11616;SDS011;5864;52.998;9.068;2023-04-20T14:07:39;6.70;;;5.67;;
11616;SDS011;5864;52.998;9.068;2023-04-20T14:10:26;7.03;;;5.47;;
11616;SDS011;5864;52.998;9.068;2023-04-20T14:13:12;7.00;;;5.20;;
11616;SDS011;5864;52.998;9.068;2023-04-20T14:15:57;7.57;;;5.40;;
11616;SDS011;5864;52.998;9.068;2023-04-20T14:18:43;8.00;;;5.27;;
11616;SDS011;5864;52.998;9.068;2023-04-20T14:21:30;7.23;;;5.47;;
11616;SDS011;5864;52.998;9.068;2023-04-20T14:24:16;8.97;;;5.60;;
11616;SDS011;5864;52.998;9.068;2023-04-20T14:27:03;6.93;;;5.37;;
11616;SDS011;5864;52.998;9.068;2023-04-20T14:29:48;7.17;;;5.57;;
11616;SDS011;5864;52.998;9.068;2023-04-20T14:32:34;7.80;;;5.43;;
11616;SDS011;5864;52.998;9.068;2023-04-20T14:35:20;8.53;;;4.87;;
11616;SDS011;5864;52.998;9.068;2023-04-20T14:38:07;7.63;;;5.27;;
11616;SDS011;5864;52.998;9.068;2023-04-20T14:40:52;7.00;;;5.53;;
11616;SDS011;5864;52.998;9.068;2023-04-20T14:43:40;6.40;;;5.10;;
11616;SDS011;5864;52.998;9.068;2023-04-20T14:46:26;6.57;;;5.47;;
11616;SDS011;5864;52.998;9.068;2023-04-20T14:49:12;8.87;;;5.47;;
11616;SDS011;5864;52.998;9.068;2023-04-20T14:51:57;7.77;;;5.60;;
11616;SDS011;5864;52.998;9.068;2023-04-20T14:54:43;9.50;;;5.73;;
11616;SDS011;5864;52.998;9.068;2023-04-20T14:57:28;7.87;;;5.50;;
11616;SDS011;5864;52.998;9.068;2023-04-20T15:00:17;8.80;;;5.67;;
11616;SDS011;5864;52.998;9.068;2023-04-20T15:03:03;9.87;;;6.00;;
11616;SDS011;5864;52.998;9.068;2023-04-20T15:05:50;8.40;;;6.40;;
11616;SDS011;5864;52.998;9.068;2023-04-20T15:08:35;8.20;;;5.97;;
11616;SDS011;5864;52.998;9.068;2023-04-20T15:11:22;8.67;;;6.37;;
11616;SDS011;5864;52.998;9.068;2023-04-20T15:14:07;8.17;;;6.40;;
11616;SDS011;5864;52.998;9.068;2023-04-20T15:16:54;8.47;;;6.37;;
11616;SDS011;5864;52.998;9.068;2023-04-20T15:19:39;6.87;;;6.17;;
11616;SDS011;5864;52.998;9.068;2023-04-20T15:22:28;8.67;;;6.60;;
11616;SDS011;5864;52.998;9.068;2023-04-20T15:25:13;6.93;;;6.03;;
11616;SDS011;5864;52.998;9.068;2023-04-20T15:28:00;10.73;;;6.73;;
11616;SDS011;5864;52.998;9.068;2023-04-20T15:30:46;9.10;;;6.97;;
11616;SDS011;5864;52.998;9.068;2023-04-20T15:33:33;9.87;;;6.60;;
11616;SDS011;5864;52.998;9.068;2023-04-20T15:36:19;9.53;;;6.83;;
11616;SDS011;5864;52.998;9.068;2023-04-20T15:39:04;10.83;;;6.80;;
11616;SDS011;5864;52.998;9.068;2023-04-20T15:41:51;9.20;;;6.40;;
11616;SDS011;5864;52.998;9.068;2023-04-20T15:44:36;9.43;;;7.30;;
11616;SDS011;5864;52.998;9.068;2023-04-20T15:47:23;8.30;;;6.73;;
11616;SDS011;5864;52.998;9.068;2023-04-20T15:50:10;8.67;;;6.47;;
11616;SDS011;5864;52.998;9.068;2023-04-20T15:52:55;10.33;;;6.67;;
11616;SDS011;5864;52.998;9.068;2023-04-20T15:55:41;8.90;;;7.00;;
11616;SDS011;5864;52.998;9.068;2023-04-20T15:58:26;9.15;;;7.07;;
11616;SDS011;5864;52.998;9.068;2023-04-20T16:01:13;7.90;;;6.33;;
11616;SDS011;5864;52.998;9.068;2023-04-20T16:03:59;8.87;;;6.37;;
11616;SDS011;5864;52.998;9.068;2023-04-20T16:06:46;8.00;;;5.90;;
11616;SDS011;5864;52.998;9.068;2023-04-20T16:09:31;7.87;;;6.07;;
11616;SDS011;5864;52.998;9.068;2023-04-20T16:12:17;8.87;;;6.13;;
11616;SDS011;5864;52.998;9.068;2023-04-20T16:15:03;9.00;;;6.30;;
11616;SDS011;5864;52.998;9.068;2023-04-20T16:17:50;6.53;;;5.77;;
11616;SDS011;5864;52.998;9.068;2023-04-20T16:20:36;8.07;;;6.93;;
11616;SDS011;5864;52.998;9.068;2023-04-20T16:23:23;7.50;;;5.63;;
11616;SDS011;5864;52.998;9.068;2023-04-20T16:26:09;8.47;;;6.33;;
11616;SDS011;5864;52.998;9.068;2023-04-20T16:28:54;9.90;;;6.27;;
11616;SDS011;5864;52.998;9.068;2023-04-20T16:31:40;7.67;;;5.93;;
11616;SDS011;5864;52.998;9.068;2023-04-20T16:34:26;7.93;;;5.63;;
11616;SDS011;5864;52.998;9.068;2023-04-20T16:37:13;8.27;;;5.77;;
11616;SDS011;5864;52.998;9.068;2023-04-20T16:40:00;9.43;;;6.13;;
11616;SDS011;5864;52.998;9.068;2023-04-20T16:42:45;8.20;;;5.87;;
11616;SDS011;5864;52.998;9.068;2023-04-20T16:45:31;8.07;;;6.70;;
11616;SDS011;5864;52.998;9.068;2023-04-20T16:48:18;8.33;;;6.57;;
11616;SDS011;5864;52.998;9.068;2023-04-20T16:51:04;9.23;;;7.23;;
11616;SDS011;5864;52.998;9.068;2023-04-20T16:53:50;10.67;;;7.40;;